Time;durP1;ratioP1;P1;durP2;ratioP2;P2;SDS_P1;SDS_P2;PMS_P1;PMS_P2;Temp;Humidity;BMP_temperature;BMP_pressure;BME280_temperature;BME280_humidity;BME280_pressure;Samples;Min_cycle;Max_cycle;Signal;HPM_P1;HPM_P2
2023/02/22 00:01:20;;;;;;;1.50;1.05;;;;;;;3.17;67.00;101560.53;5101260;28;20080;-65
2023/02/22 00:03:50;;;;;;;5.35;1.20;;;;;;;3.20;67.73;101572.72;5102365;28;20020;-65
2023/02/22 00:06:19;;;;;;;1.70;1.25;;;;;;;3.16;67.12;101573.97;5102831;28;20025;-65
2023/02/22 00:08:46;;;;;;;1.90;1.20;;;;;;;3.18;67.36;101569.34;5102533;28;20053;-65
2023/02/22 00:11:13;;;;;;;1.70;1.13;;;;;;;3.20;67.02;101568.25;5084070;28;20028;-65
2023/02/22 00:13:42;;;;;;;1.50;1.25;;;;;;;3.17;67.46;101570.31;5101109;28;20028;-65
2023/02/22 00:16:11;;;;;;;1.67;1.20;;;;;;;3.13;67.05;101575.06;5100580;28;20044;-65
2023/02/22 00:18:37;;;;;;;2.25;1.20;;;;;;;3.07;67.69;101564.94;5102585;28;20410;-65
2023/02/22 00:21:09;;;;;;;1.88;1.30;;;;;;;3.06;67.55;101565.94;5101520;28;20028;-65
2023/02/22 00:23:38;;;;;;;1.40;1.10;;;;;;;3.03;67.56;101566.19;5101486;28;20024;-66
2023/02/22 00:26:05;;;;;;;4.22;1.20;;;;;;;3.02;67.55;101572.50;5100160;28;20027;-65
2023/02/22 00:28:31;;;;;;;1.75;1.10;;;;;;;3.01;67.30;101565.47;5102063;28;20055;-66
2023/02/22 00:30:56;;;;;;;1.42;1.23;;;;;;;2.96;67.96;101565.03;5100359;28;20490;-64
2023/02/22 00:33:22;;;;;;;1.50;1.00;;;;;;;2.99;67.65;101570.09;5101847;28;20147;-65
2023/02/22 00:35:48;;;;;;;1.58;1.13;;;;;;;3.04;68.03;101565.22;5101391;28;20030;-65
2023/02/22 00:38:16;;;;;;;3.03;1.25;;;;;;;3.08;67.33;101568.44;5101058;28;20032;-65
2023/02/22 00:40:44;;;;;;;1.73;1.10;;;;;;;3.01;67.36;101553.06;5101551;28;20137;-65
2023/02/22 00:43:09;;;;;;;2.10;1.30;;;;;;;2.91;67.44;101541.50;5101272;28;20016;-65
2023/02/22 00:45:36;;;;;;;2.03;1.20;;;;;;;3.04;67.70;101560.72;5099729;28;20056;-65
2023/02/22 00:48:03;;;;;;;2.90;1.40;;;;;;;3.06;67.69;101549.97;5096778;28;20028;-65
2023/02/22 00:50:30;;;;;;;1.55;1.10;;;;;;;3.03;67.74;101550.25;5098126;28;20073;-65
2023/02/22 00:52:58;;;;;;;1.27;1.13;;;;;;;3.06;67.08;101555.31;5099606;28;20119;-65
2023/02/22 00:55:26;;;;;;;1.65;1.20;;;;;;;3.06;67.69;101549.97;5101367;28;20020;-65
2023/02/22 00:57:52;;;;;;;3.50;1.40;;;;;;;3.02;67.27;101549.41;5101220;28;20024;-65
2023/02/22 01:00:21;;;;;;;2.13;1.45;;;;;;;2.96;67.02;101538.47;5100491;28;20058;-65
2023/02/22 01:02:49;;;;;;;1.77;1.45;;;;;;;3.02;67.20;101540.59;5099337;28;20024;-65
2023/02/22 01:05:16;;;;;;;3.33;1.33;;;;;;;2.84;67.02;101513.75;5100495;28;20031;-65
2023/02/22 01:07:42;;;;;;;2.90;1.58;;;;;;;3.05;66.95;101543.00;5100294;28;20024;-65
2023/02/22 01:10:10;;;;;;;2.00;1.40;;;;;;;3.02;67.72;101543.25;5099789;28;20085;-65
2023/02/22 01:12:36;;;;;;;2.63;1.35;;;;;;;3.04;67.19;101558.06;5081913;28;20182;-65
2023/02/22 01:15:03;;;;;;;1.60;1.20;;;;;;;3.01;67.22;101546.88;5100463;28;20035;-65
2023/02/22 01:17:29;;;;;;;2.00;1.40;;;;;;;3.04;67.47;101541.28;5100752;28;20091;-65
2023/02/22 01:19:55;;;;;;;3.28;1.20;;;;;;;2.96;67.53;101541.13;5100841;28;20036;-65
2023/02/22 01:22:21;;;;;;;3.30;1.48;;;;;;;3.01;67.62;101547.72;5099653;28;20047;-65
2023/02/22 01:24:48;;;;;;;2.10;1.38;;;;;;;3.02;67.85;101556.53;5100272;28;20020;-65
2023/02/22 01:27:14;;;;;;;2.85;1.52;;;;;;;3.01;67.03;101547.72;5099620;28;20038;-65
2023/02/22 01:29:40;;;;;;;2.17;1.40;;;;;;;3.02;67.06;101553.88;5097098;28;20028;-65
2023/02/22 01:32:06;;;;;;;2.13;1.40;;;;;;;3.07;67.27;101556.97;5098930;28;20445;-65
2023/02/22 01:34:32;;;;;;;2.33;1.42;;;;;;;3.02;66.94;101564.53;5099873;28;20070;-65
2023/02/22 01:36:58;;;;;;;2.00;1.30;;;;;;;2.96;67.91;101560.56;5099580;28;20028;-65
2023/02/22 01:39:24;;;;;;;2.65;1.40;;;;;;;2.85;67.81;101551.81;5099662;28;20051;-65
2023/02/22 01:41:52;;;;;;;2.25;1.17;;;;;;;2.75;67.89;101539.31;5098467;28;20020;-65
2023/02/22 01:44:30;;;;;;;1.95;1.15;;;;;;;2.93;67.75;101552.00;5100077;28;20042;-65
2023/02/22 01:46:57;;;;;;;1.83;1.25;;;;;;;2.85;67.44;101560.66;5100086;28;20115;-65
2023/02/22 01:49:32;;;;;;;2.05;1.40;;;;;;;2.97;67.42;101564.91;5099061;28;20024;-64
2023/02/22 01:52:00;;;;;;;;;;;;;;;2.95;67.79;101558.06;5100698;28;20036;-65
2023/02/22 01:54:32;;;;;;;1.50;1.20;;;;;;;2.84;67.29;101550.97;5100364;28;19920;-65
2023/02/22 01:57:01;;;;;;;5.25;1.50;;;;;;;2.84;67.97;101558.94;5099103;28;20027;-65
2023/02/22 01:59:32;;;;;;;3.80;1.50;;;;;;;2.90;67.41;101552.28;5099497;28;20522;-65
2023/02/22 02:01:59;;;;;;;4.65;1.30;;;;;;;2.81;67.48;101541.47;5099376;28;20032;-65
2023/02/22 02:04:26;;;;;;;2.13;1.33;;;;;;;2.90;67.16;101560.25;5098954;28;20024;-65
2023/02/22 02:06:55;;;;;;;3.25;1.30;;;;;;;2.96;67.18;101559.72;5099626;28;20043;-65
2023/02/22 02:09:35;;;;;;;1.92;1.23;;;;;;;2.93;67.18;101558.16;5098071;28;20036;-65
2023/02/22 02:12:03;;;;;;;1.55;1.20;;;;;;;2.96;67.46;101559.72;5098391;28;20020;-65
2023/02/22 02:14:32;;;;;;;2.05;1.08;;;;;;;2.96;67.34;101563.22;5100046;28;20080;-65
2023/02/22 02:17:02;;;;;;;1.95;1.17;;;;;;;2.95;66.84;101566.03;5081775;28;20062;-66
2023/02/22 02:19:44;;;;;;;1.80;1.13;;;;;;;2.89;67.59;101569.19;5099534;28;20366;-65
2023/02/22 02:22:13;;;;;;;1.73;1.27;;;;;;;2.88;67.24;101567.50;5098299;28;20020;-65
2023/02/22 02:25:04;;;;;;;3.10;1.17;;;;;;;2.81;67.97;101569.81;5099659;28;20028;-66
2023/02/22 02:27:38;;;;;;;2.00;1.20;;;;;;;2.88;67.67;101564.84;5096434;28;20142;-65
2023/02/22 02:30:42;;;;;;;2.15;1.40;;;;;;;2.89;67.44;101566.53;5097261;28;20107;-65
2023/02/22 02:33:22;;;;;;;2.67;1.10;;;;;;;2.84;67.41;101569.56;5035323;28;20033;-65
2023/02/22 02:36:07;;;;;;;2.10;1.30;;;;;;;2.72;67.63;101546.72;5018766;28;20055;-65
2023/02/22 02:38:45;;;;;;;1.47;1.00;;;;;;;2.63;67.72;101537.69;5076920;28;20044;-65
2023/02/22 02:41:17;;;;;;;1.92;1.20;;;;;;;2.73;67.33;101554.53;5098200;28;20024;-66
2023/02/22 02:44:09;;;;;;;2.40;1.20;;;;;;;2.60;67.98;101548.56;5098852;28;20498;-66
2023/02/22 02:46:42;;;;;;;2.33;1.00;;;;;;;2.57;68.43;101556.81;5100394;28;20074;-65
2023/02/22 02:49:12;;;;;;;1.20;0.90;;;;;;;2.51;68.34;101552.84;5102564;28;20027;-65
2023/02/22 02:51:44;;;;;;;0.90;0.70;;;;;;;2.59;68.03;101542.44;5101001;28;20035;-66
2023/02/22 02:54:11;;;;;;;2.70;1.30;;;;;;;2.66;67.78;101539.25;5102646;28;20024;-65
2023/02/22 02:56:37;;;;;;;1.60;0.90;;;;;;;2.73;67.92;101549.22;5102760;28;20012;-65
2023/02/22 02:59:03;;;;;;;1.30;0.90;;;;;;;2.75;67.86;101555.25;5102851;28;20031;-66
2023/02/22 03:01:53;;;;;;;1.27;0.95;;;;;;;2.72;68.10;101552.03;5102132;28;20044;-65
2023/02/22 03:04:29;;;;;;;2.03;0.80;;;;;;;2.78;68.02;101554.13;5101692;28;20118;-65
2023/02/22 03:07:39;;;;;;;1.55;1.15;;;;;;;2.67;67.66;101544.44;5102892;28;20032;-65
2023/02/22 03:10:12;;;;;;;1.67;1.30;;;;;;;2.71;68.27;101552.97;5074218;28;20032;-65
2023/02/22 03:13:03;;;;;;;1.65;1.13;;;;;;;2.78;67.38;101557.66;5102509;28;20484;-65
2023/02/22 03:15:55;;;;;;;1.00;0.90;;;;;;;2.78;67.84;101555.00;5114879;28;20069;-65
2023/02/22 03:18:34;;;;;;;3.17;1.10;;;;;;;2.81;67.80;101552.09;5102131;28;20048;-64
2023/02/22 03:21:35;;;;;;;2.40;1.20;;;;;;;2.82;67.29;101561.75;5103093;28;20020;-66
2023/02/22 03:24:41;;;;;;;2.30;1.10;;;;;;;2.56;67.86;101539.19;5101450;28;20131;-64
2023/02/22 03:27:27;;;;;;;2.03;1.00;;;;;;;2.38;68.87;101538.91;5116298;28;20092;-65
2023/02/22 03:29:59;;;;;;;2.55;1.00;;;;;;;2.46;69.11;101551.56;5103076;28;20028;-65
2023/02/22 03:32:30;;;;;;;1.00;0.80;;;;;;;2.30;69.66;101536.88;5102931;28;20047;-65
2023/02/22 03:35:01;;;;;;;1.50;1.00;;;;;;;2.44;69.61;101534.88;5101665;28;20092;-65
2023/02/22 03:37:34;;;;;;;1.48;0.93;;;;;;;2.52;69.36;101541.25;5102900;28;20012;-66
2023/02/22 03:40:13;;;;;;;1.45;1.08;;;;;;;2.58;69.39;101539.88;5102806;28;20024;-65
2023/02/22 03:42:44;;;;;;;2.58;0.90;;;;;;;2.43;69.30;101502.19;5102337;28;20032;-65
2023/02/22 03:45:14;;;;;;;3.22;1.13;;;;;;;2.68;68.41;101532.84;5101967;28;20035;-64
2023/02/22 03:47:49;;;;;;;1.42;0.88;;;;;;;2.74;68.76;101531.47;5102709;28;20512;-65
2023/02/22 03:50:28;;;;;;;1.10;0.95;;;;;;;2.81;68.79;101536.16;5103297;28;20031;-65
2023/02/22 03:52:55;;;;;;;1.52;1.00;;;;;;;2.72;68.88;101534.25;5101096;28;20031;-65
2023/02/22 03:55:22;;;;;;;2.25;1.10;;;;;;;2.72;68.37;101501.53;5101570;28;20020;-65
2023/02/22 03:57:53;;;;;;;1.33;0.93;;;;;;;2.89;68.73;101532.81;5084621;28;20111;-65
2023/02/22 04:00:22;;;;;;;1.98;1.10;;;;;;;2.71;68.72;101503.31;5102713;28;20424;-65
2023/02/22 04:02:48;;;;;;;1.50;0.90;;;;;;;2.97;68.82;101535.66;5095698;28;20020;-64
2023/02/22 04:05:14;;;;;;;2.63;0.85;;;;;;;2.97;68.40;101529.50;5096878;28;20039;-65
2023/02/22 04:07:40;;;;;;;1.30;0.90;;;;;;;3.06;67.81;101540.19;5098887;28;20133;-65
2023/02/22 04:10:07;;;;;;;3.63;1.00;;;;;;;2.85;68.90;101541.16;5097551;28;20038;-65
2023/02/22 04:12:34;;;;;;;1.05;0.80;;;;;;;2.73;69.03;101541.25;5078446;28;20055;-65
2023/02/22 04:14:59;;;;;;;1.02;0.93;;;;;;;3.01;68.26;101525.59;5098532;28;20047;-65
2023/02/22 04:17:25;;;;;;;1.20;1.08;;;;;;;3.05;68.27;101543.00;5098282;28;20028;-65
2023/02/22 04:19:50;;;;;;;1.73;1.00;;;;;;;3.00;68.45;101537.22;5099107;28;20031;-65
2023/02/22 04:22:16;;;;;;;1.20;0.98;;;;;;;3.22;68.46;101547.69;5101327;28;20031;-65
2023/02/22 04:24:42;;;;;;;1.92;1.10;;;;;;;3.22;67.47;101542.38;5101258;28;20031;-65
2023/02/22 04:27:07;;;;;;;1.70;1.10;;;;;;;2.92;68.31;101527.25;5101786;28;20040;-65
2023/02/22 04:29:33;;;;;;;4.05;1.00;;;;;;;2.92;68.86;101542.38;5103585;28;20092;-65
2023/02/22 04:31:58;;;;;;;1.65;1.10;;;;;;;3.10;68.50;101543.41;5102579;28;20023;-65
2023/02/22 04:34:24;;;;;;;0.90;0.77;;;;;;;3.28;67.75;101544.50;5101949;28;20036;-65
2023/02/22 04:36:49;;;;;;;1.73;1.17;;;;;;;3.11;68.70;101545.09;5099502;28;20028;-65
2023/02/22 04:39:14;;;;;;;1.17;0.70;;;;;;;3.02;68.81;101540.59;5102001;28;20085;-65
2023/02/22 04:41:40;;;;;;;1.00;0.80;;;;;;;3.13;68.27;101518.38;5101624;28;20040;-65
2023/02/22 04:44:05;;;;;;;1.55;1.00;;;;;;;3.27;68.42;101548.13;5083660;28;20028;-65
2023/02/22 04:46:31;;;;;;;1.65;1.10;;;;;;;3.39;68.17;101545.38;5101342;28;20032;-65
2023/02/22 04:48:56;;;;;;;1.20;0.90;;;;;;;3.33;67.98;101544.09;5101393;28;20031;-65
2023/02/22 04:51:23;;;;;;;1.33;0.90;;;;;;;3.15;68.58;101549.19;5100225;28;20040;-65
2023/02/22 04:53:48;;;;;;;1.30;0.80;;;;;;;3.38;67.73;101549.88;5101643;28;20031;-65
2023/02/22 04:56:17;;;;;;;1.63;1.20;;;;;;;3.35;67.49;101534.16;5101370;28;20110;-65
2023/02/22 04:58:42;;;;;;;1.98;1.05;;;;;;;3.32;67.98;101554.88;5101514;28;20020;-65
2023/02/22 05:01:08;;;;;;;2.65;1.20;;;;;;;3.11;68.47;101545.09;5095724;28;20154;-64
2023/02/22 05:03:36;;;;;;;1.08;0.98;;;;;;;3.03;68.26;101519.19;5097879;28;20085;-65
2023/02/22 05:06:02;;;;;;;1.20;0.93;;;;;;;2.91;69.55;101544.16;5099528;28;20505;-64
2023/02/22 05:08:28;;;;;;;1.20;0.90;;;;;;;2.92;69.31;101542.38;5099245;28;20036;-65
2023/02/22 05:10:54;;;;;;;1.60;1.00;;;;;;;3.07;68.21;101538.38;5080981;28;20058;-67
2023/02/22 05:13:19;;;;;;;1.20;0.82;;;;;;;3.05;69.20;101537.69;5115783;28;20039;-67
2023/02/22 05:15:44;;;;;;;1.63;1.00;;;;;;;2.90;69.65;101523.88;5100196;28;20034;-67
2023/02/22 05:18:10;;;;;;;2.00;1.08;;;;;;;3.02;68.62;101524.66;5100362;28;20052;-66
2023/02/22 05:20:35;;;;;;;1.33;0.80;;;;;;;3.21;67.96;101543.34;5084198;28;20520;-67
2023/02/22 05:23:02;;;;;;;1.55;0.85;;;;;;;3.38;68.02;101539.22;5083150;28;20028;-67
2023/02/22 05:25:28;;;;;;;2.03;1.08;;;;;;;3.19;67.71;101512.53;5101781;28;20075;-67
2023/02/22 05:27:56;;;;;;;1.75;1.10;;;;;;;3.06;68.35;101539.34;5101619;28;20035;-67
2023/02/22 05:30:26;;;;;;;3.63;1.35;;;;;;;3.34;68.25;101536.94;5100630;28;20481;-67
2023/02/22 05:32:51;;;;;;;2.53;1.63;;;;;;;3.30;67.80;101509.78;5100929;28;20050;-66
2023/02/22 05:35:19;;;;;;;1.75;0.90;;;;;;;3.37;68.11;101534.03;5098728;28;20028;-67
2023/02/22 05:37:45;;;;;;;2.75;1.30;;;;;;;3.26;69.15;101530.47;5095707;28;20036;-66
2023/02/22 05:40:13;;;;;;;1.83;1.10;;;;;;;3.47;67.98;101540.22;5101014;28;20032;-66
2023/02/22 05:42:39;;;;;;;2.22;1.17;;;;;;;3.31;68.17;101511.44;5100165;28;20027;-67
2023/02/22 05:45:05;;;;;;;2.28;1.38;;;;;;;3.39;68.29;101545.38;5100438;28;20020;-67
2023/02/22 05:47:30;;;;;;;2.53;1.30;;;;;;;3.23;68.28;101509.47;5100467;28;20036;-68
2023/02/22 05:49:56;;;;;;;3.08;1.25;;;;;;;3.38;68.06;101539.22;5101586;28;20031;-68
2023/02/22 05:52:21;;;;;;;3.78;1.17;;;;;;;3.28;68.43;101522.38;5099206;28;20032;-68
2023/02/22 05:54:47;;;;;;;8.98;1.67;;;;;;;3.38;68.44;101552.53;5096675;28;20035;-67
2023/02/22 05:57:12;;;;;;;4.10;1.60;;;;;;;3.47;68.44;101551.69;5097556;28;20026;-68
2023/02/22 05:59:37;;;;;;;2.55;1.38;;;;;;;3.23;69.34;101551.19;5095758;28;20050;-68
2023/02/22 06:02:03;;;;;;;6.20;1.60;;;;;;;3.35;68.59;101559.94;5094831;28;20031;-67
2023/02/22 06:04:29;;;;;;;5.93;1.75;;;;;;;3.35;69.33;101559.94;5074339;28;20036;-67
2023/02/22 06:06:54;;;;;;;1.98;1.30;;;;;;;3.29;69.97;101561.28;5094318;28;20081;-67
2023/02/22 06:09:20;;;;;;;3.65;1.92;;;;;;;3.40;69.67;101568.34;5094152;28;20423;-68
2023/02/22 06:11:45;;;;;;;2.85;1.38;;;;;;;3.48;68.94;101564.03;5094663;28;20040;-68
2023/02/22 06:14:10;;;;;;;4.75;1.38;;;;;;;3.56;69.05;101573.16;5112518;28;20094;-68
2023/02/22 06:16:36;;;;;;;12.20;1.80;;;;;;;3.40;69.18;101576.31;5098006;28;20023;-68
2023/02/22 06:19:02;;;;;;;9.55;1.80;;;;;;;3.23;70.18;101572.47;5062794;28;20052;-68
2023/02/22 06:21:28;;;;;;;4.45;1.58;;;;;;;3.49;69.61;101583.50;5099536;28;20043;-68
2023/02/22 06:23:54;;;;;;;9.25;1.60;;;;;;;3.59;68.78;101581.72;5092966;28;20046;-68
2023/02/22 06:26:19;;;;;;;7.40;1.42;;;;;;;3.46;69.75;101589.09;5119772;28;20036;-68
2023/02/22 06:28:45;;;;;;;4.97;1.30;;;;;;;3.37;70.06;101585.41;5122669;28;20031;-68
2023/02/22 06:31:11;;;;;;;8.20;1.50;;;;;;;3.30;70.69;101593.06;5089207;28;20039;-68
2023/02/22 06:33:36;;;;;;;6.35;1.90;;;;;;;3.29;70.52;101595.88;5121911;28;20028;-68
2023/02/22 06:36:02;;;;;;;6.70;1.67;;;;;;;3.38;70.81;101588.91;5122065;28;20047;-68
2023/02/22 06:38:27;;;;;;;12.98;2.10;;;;;;;3.35;70.69;101595.34;5124851;28;20040;-68
2023/02/22 06:40:56;;;;;;;2.28;1.40;;;;;;;3.46;70.71;101589.09;5122147;28;20055;-69
2023/02/22 06:43:23;;;;;;;5.78;1.60;;;;;;;3.31;70.03;101562.00;5104299;28;20111;-68
2023/02/22 06:45:49;;;;;;;4.97;2.13;;;;;;;3.41;70.94;101585.97;5123977;28;20031;-68
2023/02/22 06:48:15;;;;;;;8.27;1.60;;;;;;;3.46;71.08;101589.09;5102992;28;20032;-67
2023/02/22 06:50:40;;;;;;;3.88;1.33;;;;;;;3.39;71.24;101595.94;5105704;28;20024;-67
2023/02/22 06:53:05;;;;;;;4.72;2.08;;;;;;;3.41;71.54;101589.50;5120765;28;20038;-66
2023/02/22 06:55:33;;;;;;;6.07;1.70;;;;;;;3.53;71.28;101591.06;5122318;28;20034;-67
2023/02/22 06:57:59;;;;;;;5.05;2.00;;;;;;;3.54;71.26;101586.59;5122997;28;20049;-67
2023/02/22 07:00:26;;;;;;;3.88;1.48;;;;;;;3.52;70.96;101575.25;5118915;28;20028;-67
2023/02/22 07:02:53;;;;;;;5.70;1.73;;;;;;;3.35;72.62;101579.38;5118273;28;20027;-67
2023/02/22 07:05:21;;;;;;;5.07;1.88;;;;;;;3.34;73.04;101584.81;5121874;28;20023;-67
2023/02/22 07:07:48;;;;;;;2.75;1.60;;;;;;;3.39;73.02;101582.63;5104489;28;20039;-67
2023/02/22 07:10:21;;;;;;;4.32;1.80;;;;;;;3.50;73.05;101582.53;5123292;28;20098;-67
2023/02/22 07:12:47;;;;;;;7.07;1.70;;;;;;;3.67;72.28;101584.53;5121678;28;20038;-67
2023/02/22 07:15:14;;;;;;;14.18;2.40;;;;;;;3.82;71.71;101587.69;5122811;28;20028;-67
2023/02/22 07:17:40;;;;;;;3.65;1.58;;;;;;;3.58;72.01;101569.41;5122513;28;20399;-67
2023/02/22 07:20:07;;;;;;;10.73;1.90;;;;;;;3.89;71.50;101595.97;5122451;28;20104;-67
2023/02/22 07:22:32;;;;;;;6.57;1.55;;;;;;;3.71;72.55;101587.81;5123337;28;20138;-67
2023/02/22 07:24:59;;;;;;;6.57;1.98;;;;;;;3.43;72.08;101536.16;5123405;28;20035;-67
2023/02/22 07:27:24;;;;;;;9.68;1.70;;;;;;;3.82;71.95;101582.34;5118240;28;20657;-67
2023/02/22 07:29:49;;;;;;;4.82;1.73;;;;;;;3.89;72.16;101611.94;5084303;28;20059;-67
2023/02/22 07:32:15;;;;;;;11.80;1.58;;;;;;;4.08;71.98;101611.16;5118454;28;20031;-67
2023/02/22 07:34:41;;;;;;;8.13;1.80;;;;;;;4.15;71.51;101607.78;5119275;28;20371;-66
2023/02/22 07:37:07;;;;;;;6.53;1.65;;;;;;;4.22;71.53;101603.59;5120032;28;20526;-67
2023/02/22 07:39:33;;;;;;;4.13;1.90;;;;;;;4.28;71.06;101593.38;5126966;28;20038;-66
2023/02/22 07:41:59;;;;;;;4.68;1.52;;;;;;;4.18;71.91;101601.34;5132842;28;20031;-67
2023/02/22 07:44:24;;;;;;;4.68;1.45;;;;;;;4.15;71.61;101605.13;5131369;28;20028;-67
2023/02/22 07:46:50;;;;;;;4.88;1.50;;;;;;;4.29;71.44;101592.38;5132647;28;20028;-67
2023/02/22 07:49:15;;;;;;;11.00;1.80;;;;;;;4.18;71.72;101580.06;5113304;28;20027;-66
2023/02/22 07:51:41;;;;;;;4.45;1.80;;;;;;;4.33;71.49;101591.13;5119616;28;20039;-67
2023/02/22 07:54:06;;;;;;;3.95;1.80;;;;;;;4.38;71.30;101595.06;5119732;28;20053;-66
2023/02/22 07:56:32;;;;;;;5.28;1.63;;;;;;;4.31;72.40;101614.41;5121790;28;20050;-66
2023/02/22 07:58:57;;;;;;;4.80;1.80;;;;;;;4.27;71.98;101611.16;5120828;28;20160;-67
2023/02/22 08:01:23;;;;;;;3.30;1.73;;;;;;;4.43;71.41;101611.47;5085641;28;20074;-66
2023/02/22 08:03:49;;;;;;;8.98;1.65;;;;;;;4.33;71.23;101577.81;5101856;28;20171;-66
2023/02/22 08:06:15;;;;;;;5.18;2.30;;;;;;;4.59;71.68;101610.06;5120004;28;20042;-67
2023/02/22 08:08:41;;;;;;;4.95;1.75;;;;;;;4.52;71.46;101614.28;5119732;28;20051;-67
2023/02/22 08:11:07;;;;;;;5.35;1.50;;;;;;;4.55;71.77;101614.84;5120387;28;20370;-67
2023/02/22 08:13:32;;;;;;;3.45;1.45;;;;;;;4.64;71.82;101597.19;5123248;28;20041;-66
2023/02/22 08:15:57;;;;;;;6.68;2.15;;;;;;;4.74;71.43;101618.50;5123950;28;20023;-67
2023/02/22 08:18:24;;;;;;;5.18;1.52;;;;;;;4.76;71.15;101605.88;5121083;28;20067;-67
2023/02/22 08:20:52;;;;;;;3.75;1.40;;;;;;;4.61;71.81;101608.13;5121591;28;20085;-66
2023/02/22 08:23:21;;;;;;;4.18;1.48;;;;;;;4.80;72.04;101609.91;5104455;28;20135;-67
2023/02/22 08:25:47;;;;;;;8.68;1.83;;;;;;;4.78;72.17;101606.56;5120361;28;20075;-67
2023/02/22 08:28:15;;;;;;;4.88;2.00;;;;;;;4.75;72.06;101589.03;5117778;28;20110;-67
2023/02/22 08:30:43;;;;;;;5.53;1.70;;;;;;;4.89;71.31;101601.91;5121522;28;20035;-67
2023/02/22 08:33:13;;;;;;;5.30;1.67;;;;;;;4.75;71.25;101569.53;5121926;28;20099;-66
2023/02/22 08:35:39;;;;;;;4.03;1.58;;;;;;;4.84;71.70;101592.69;5121313;28;20058;-66
2023/02/22 08:38:06;;;;;;;4.32;1.40;;;;;;;4.59;72.76;101573.59;5124300;27;20060;-67
2023/02/22 08:40:34;;;;;;;4.63;1.73;;;;;;;4.77;72.77;101599.53;5124498;27;20028;-67
2023/02/22 08:43:03;;;;;;;5.93;2.30;;;;;;;4.89;71.51;101572.56;5124234;28;20114;-66
2023/02/22 08:45:29;;;;;;;2.03;1.25;;;;;;;5.11;71.08;101589.25;5121620;28;20022;-67
2023/02/22 08:47:54;;;;;;;6.90;2.17;;;;;;;5.30;71.04;101605.22;5105430;28;20047;-66
2023/02/22 08:50:26;;;;;;;4.72;1.70;;;;;;;5.49;70.20;101600.78;5124059;28;20038;-67
2023/02/22 08:52:54;;;;;;;4.07;1.42;;;;;;;5.47;70.67;101606.28;5124719;28;20047;-66
2023/02/22 08:55:25;;;;;;;5.20;1.52;;;;;;;5.48;70.66;101605.28;5124238;28;20065;-67
2023/02/22 08:57:50;;;;;;;7.70;1.35;;;;;;;5.64;70.50;101593.97;5118330;28;20024;-67
2023/02/22 09:00:17;;;;;;;5.35;1.58;;;;;;;5.70;70.32;101604.06;5119997;28;20035;-67
2023/02/22 09:02:43;;;;;;;2.38;1.48;;;;;;;5.60;70.60;101596.09;5119559;28;20036;-67
2023/02/22 09:05:09;;;;;;;4.50;1.60;;;;;;;5.57;70.92;101595.56;5119554;28;20031;-67
2023/02/22 09:07:34;;;;;;;2.58;1.50;;;;;;;5.63;70.17;101603.81;5117384;28;20026;-67
2023/02/22 09:10:00;;;;;;;3.60;1.60;;;;;;;5.60;70.54;101597.94;5084406;28;20051;-67
2023/02/22 09:12:25;;;;;;;3.50;1.70;;;;;;;5.74;70.25;101605.47;5117314;28;20035;-67
2023/02/22 09:14:51;;;;;;;4.63;1.63;;;;;;;5.83;70.50;101598.41;5119309;28;20042;-67
2023/02/22 09:17:16;;;;;;;7.32;1.80;;;;;;;5.78;70.50;101603.31;5117851;28;20077;-67
2023/02/22 09:19:42;;;;;;;3.45;1.75;;;;;;;5.93;70.24;101607.22;5101092;28;20151;-68
2023/02/22 09:22:07;;;;;;;6.20;1.60;;;;;;;6.04;69.70;101600.84;5118442;28;20055;-67
2023/02/22 09:24:33;;;;;;;3.25;1.40;;;;;;;6.06;69.72;101596.16;5100719;28;20106;-67
2023/02/22 09:26:58;;;;;;;8.93;1.77;;;;;;;6.01;69.68;101601.97;5117671;28;20032;-67
2023/02/22 09:29:26;;;;;;;3.53;1.50;;;;;;;5.79;69.56;101527.56;5101076;28;20034;-67
2023/02/22 09:31:53;;;;;;;2.45;1.63;;;;;;;6.18;69.73;101594.97;5118992;28;20024;-67
2023/02/22 09:34:21;;;;;;;5.63;1.75;;;;;;;6.27;69.58;101603.91;5119963;28;20019;-67
2023/02/22 09:36:48;;;;;;;3.15;1.83;;;;;;;6.34;69.36;101607.66;5116754;28;20073;-67
2023/02/22 09:39:17;;;;;;;4.28;1.38;;;;;;;6.43;69.23;101600.59;5119097;28;20043;-66
2023/02/22 09:41:45;;;;;;;3.63;1.60;;;;;;;6.19;69.93;101601.16;5118074;28;20032;-67
2023/02/22 09:44:29;;;;;;;2.78;1.42;;;;;;;6.14;69.30;101603.44;5119846;28;20016;-67
2023/02/22 09:46:57;;;;;;;4.35;1.52;;;;;;;6.40;69.19;101587.50;5118074;28;20084;-67
2023/02/22 09:49:46;;;;;;;4.20;1.52;;;;;;;6.57;69.21;101595.53;5117027;28;20030;-67
2023/02/22 09:52:24;;;;;;;6.93;1.20;;;;;;;6.55;69.44;101602.00;5114734;28;20102;-66
2023/02/22 09:54:59;;;;;;;3.38;1.40;;;;;;;6.62;68.85;101599.56;5117642;28;20023;-67
2023/02/22 09:57:33;;;;;;;1.80;1.40;;;;;;;6.70;68.63;101611.19;5116155;28;20023;-67
2023/02/22 10:00:16;;;;;;;5.00;1.40;;;;;;;6.42;68.83;101594.38;5118508;28;20077;-68
2023/02/22 10:02:59;;;;;;;3.67;1.60;;;;;;;6.66;68.61;101609.81;5117624;28;20019;-67
2023/02/22 10:05:32;;;;;;;3.38;1.40;;;;;;;6.67;68.56;101610.66;5118754;28;20043;-67
2023/02/22 10:08:04;;;;;;;3.67;1.50;;;;;;;6.75;68.48;101616.88;5116162;28;20053;-67
2023/02/22 10:10:35;;;;;;;2.92;1.30;;;;;;;6.93;68.34;101621.41;5113453;28;20057;-67
2023/02/22 10:13:04;;;;;;;4.95;1.50;;;;;;;6.96;67.83;101613.06;5114685;28;20028;-67
2023/02/22 10:15:41;;;;;;;5.03;1.60;;;;;;;6.85;68.21;101607.94;5117081;28;20015;-67
2023/02/22 10:18:45;;;;;;;5.22;1.30;;;;;;;6.99;67.69;101605.56;5119742;28;20192;-68
2023/02/22 10:21:30;;;;;;;3.00;1.48;;;;;;;7.09;67.58;101602.78;5119484;28;20032;-67
2023/02/22 10:24:03;;;;;;;4.28;1.40;;;;;;;6.89;67.94;101604.81;5118608;28;20020;-67
2023/02/22 10:26:35;;;;;;;4.65;1.70;;;;;;;7.11;67.45;101603.47;5119441;28;20024;-67
2023/02/22 10:29:15;;;;;;;3.85;1.48;;;;;;;7.30;67.25;101605.94;5122502;28;20145;-67
2023/02/22 10:31:45;;;;;;;4.60;1.40;;;;;;;7.25;67.14;101610.06;5122515;28;20350;-68
2023/02/22 10:34:15;;;;;;;1.90;1.27;;;;;;;6.98;67.02;101574.44;5122748;28;20038;-67
2023/02/22 10:36:44;;;;;;;4.55;1.30;;;;;;;7.05;67.61;101604.94;5120457;28;20057;-67
2023/02/22 10:39:33;;;;;;;2.92;1.38;;;;;;;7.10;67.71;101599.13;5118529;28;20033;-67
2023/02/22 10:42:05;;;;;;;2.78;1.30;;;;;;;7.11;67.07;101565.16;5089399;28;20138;-67
2023/02/22 10:44:35;;;;;;;3.50;1.20;;;;;;;7.40;66.87;101600.47;5120532;28;20015;-66
2023/02/22 10:47:04;;;;;;;2.33;1.40;;;;;;;7.40;66.36;101587.09;5118719;28;20063;-66
2023/02/22 10:49:37;;;;;;;2.90;1.17;;;;;;;7.36;66.51;101563.47;5114813;28;20023;-67
2023/02/22 10:52:11;;;;;;;3.72;1.38;;;;;;;7.58;66.48;101588.84;5098874;28;20084;-67
2023/02/22 10:54:41;;;;;;;5.78;1.50;;;;;;;7.52;66.27;101579.63;5100521;28;20028;-67
2023/02/22 10:57:07;;;;;;;4.28;1.33;;;;;;;7.55;66.59;101584.66;5093895;28;20082;-67
2023/02/22 10:59:38;;;;;;;9.18;1.65;;;;;;;7.32;66.59;101584.38;5097538;28;20069;-66
2023/02/22 11:02:15;;;;;;;6.22;1.40;;;;;;;7.62;66.18;101583.03;5094609;28;20028;-66
2023/02/22 11:04:49;;;;;;;3.70;1.60;;;;;;;7.66;66.42;101575.50;5098991;28;20394;-66
2023/02/22 11:07:28;;;;;;;2.35;1.05;;;;;;;7.70;66.16;101572.31;5096985;28;20028;-66
2023/02/22 11:09:59;;;;;;;3.47;1.38;;;;;;;7.82;66.09;101572.06;5098055;28;20111;-66
2023/02/22 11:12:39;;;;;;;9.88;1.58;;;;;;;7.80;65.89;101569.50;5098312;28;20380;-66
2023/02/22 11:15:21;;;;;;;5.18;1.40;;;;;;;7.91;65.69;101569.22;5097709;28;20024;-67
2023/02/22 11:17:49;;;;;;;5.90;1.60;;;;;;;7.81;65.74;101552.44;5098769;28;20046;-67
2023/02/22 11:20:33;;;;;;;4.40;1.50;;;;;;;7.86;65.94;101566.19;5113421;28;20477;-66
2023/02/22 11:23:01;;;;;;;8.15;1.63;;;;;;;7.91;65.70;101561.19;5097273;28;20097;-67
2023/02/22 11:25:37;;;;;;;3.72;1.13;;;;;;;7.70;66.15;101545.53;5103092;28;20497;-67
2023/02/22 11:28:14;;;;;;;4.55;1.40;;;;;;;7.91;66.01;101569.22;5104100;28;20058;-66
2023/02/22 11:30:43;;;;;;;5.15;1.30;;;;;;;8.12;65.39;101558.06;5099165;28;20027;-66
2023/02/22 11:33:14;;;;;;;7.70;1.40;;;;;;;8.18;65.55;101556.56;5100249;28;20035;-67
2023/02/22 11:35:57;;;;;;;3.20;1.15;;;;;;;8.38;64.77;101552.59;5100444;28;20510;-66
2023/02/22 11:38:23;;;;;;;5.63;1.70;;;;;;;7.83;66.30;101561.16;5100129;28;20055;-67
2023/02/22 11:41:36;;;;;;;3.55;1.50;;;;;;;8.23;65.14;101565.78;5100847;28;20020;-66
2023/02/22 11:44:31;;;;;;;2.95;1.30;;;;;;;8.19;65.88;101566.28;5066703;28;20153;-66
2023/02/22 11:47:05;;;;;;;4.50;1.50;;;;;;;7.98;65.97;101569.44;5086598;28;20079;-66